createdAt,value
2022-10-01T00:01:15.139Z,10.54
2022-10-01T00:03:42.836Z,10.52
2022-10-01T00:06:11.973Z,10.49
2022-10-01T00:08:40.228Z,10.49
2022-10-01T00:11:09.872Z,10.55
2022-10-01T00:13:38.231Z,10.50
2022-10-01T00:16:07.392Z,10.49
2022-10-01T00:18:35.864Z,10.53
2022-10-01T00:21:06.112Z,10.49
2022-10-01T00:23:33.515Z,10.48
2022-10-01T00:26:11.127Z,10.46
2022-10-01T00:28:38.574Z,10.48
2022-10-01T00:31:07.335Z,10.48
2022-10-01T00:33:34.812Z,10.49
2022-10-01T00:36:02.375Z,10.49
2022-10-01T00:38:29.872Z,10.47
2022-10-01T00:40:57.757Z,10.46
2022-10-01T00:43:27.926Z,10.48
2022-10-01T00:45:56.641Z,10.49
2022-10-01T00:48:25.800Z,10.49
2022-10-01T00:50:53.635Z,10.50
2022-10-01T00:53:21.937Z,10.52
2022-10-01T00:55:52.007Z,10.54
2022-10-01T00:58:20.456Z,10.52
2022-10-01T01:00:50.702Z,10.56
2022-10-01T01:03:18.069Z,10.56
2022-10-01T01:05:47.700Z,10.55
2022-10-01T01:08:16.069Z,10.51
2022-10-01T01:10:49.277Z,10.50
2022-10-01T01:13:22.060Z,10.55
2022-10-01T01:15:55.262Z,10.55
2022-10-01T01:18:25.753Z,10.56
2022-10-01T01:21:02.679Z,10.53
2022-10-01T01:23:43.778Z,10.52
2022-10-01T01:26:17.754Z,10.50
2022-10-01T01:28:48.950Z,10.52
2022-10-01T01:31:19.926Z,10.59
2022-10-01T01:33:50.901Z,10.58
2022-10-01T01:36:19.605Z,10.57
2022-10-01T01:38:49.717Z,10.65
2022-10-01T01:41:20.070Z,10.69
2022-10-01T01:43:51.222Z,10.70
2022-10-01T01:46:20.088Z,10.64
2022-10-01T01:48:49.106Z,10.63
2022-10-01T01:51:19.062Z,10.67
2022-10-01T01:53:46.522Z,10.65
2022-10-01T01:56:14.122Z,10.69
2022-10-01T01:58:41.708Z,10.68
2022-10-01T02:01:24.054Z,10.74
2022-10-01T02:03:52.830Z,10.73
2022-10-01T02:06:26.115Z,10.71
2022-10-01T02:08:59.896Z,10.71
2022-10-01T02:11:29.555Z,10.76
2022-10-01T02:14:01.484Z,10.77
2022-10-01T02:16:31.571Z,10.80
2022-10-01T02:19:02.403Z,10.72
2022-10-01T02:21:33.219Z,10.70
2022-10-01T02:24:02.916Z,10.70
2022-10-01T02:26:31.676Z,10.71
2022-10-01T02:29:04.050Z,10.73
2022-10-01T02:31:31.780Z,10.81
2022-10-01T02:34:02.318Z,10.81
2022-10-01T02:36:31.654Z,10.80
2022-10-01T02:39:00.266Z,10.84
2022-10-01T02:41:29.911Z,10.82
2022-10-01T02:43:59.254Z,10.94
2022-10-01T02:46:29.358Z,10.91
2022-10-01T02:48:57.558Z,10.91
2022-10-01T02:51:35.032Z,10.97
2022-10-01T02:54:07.977Z,11.00
2022-10-01T02:56:56.232Z,11.02
2022-10-01T02:59:23.843Z,10.97
2022-10-01T03:01:51.348Z,11.01
2022-10-01T03:04:19.181Z,11.01
2022-10-01T03:06:47.940Z,11.09
2022-10-01T03:09:15.344Z,11.07
2022-10-01T03:11:43.403Z,11.06
2022-10-01T03:14:11.247Z,11.07
2022-10-01T03:16:38.734Z,11.09
2022-10-01T03:19:06.233Z,11.13
2022-10-01T03:21:33.854Z,11.14
2022-10-01T03:24:02.978Z,11.20
2022-10-01T03:26:30.431Z,11.24
2022-10-01T03:28:57.823Z,11.20
2022-10-01T03:31:25.327Z,11.28
2022-10-01T03:33:52.762Z,11.30
2022-10-01T03:36:20.098Z,11.33
2022-10-01T03:38:47.494Z,11.40
2022-10-01T03:41:16.216Z,11.38
2022-10-01T03:43:43.591Z,11.39
2022-10-01T03:46:11.555Z,11.42
2022-10-01T03:48:39.139Z,11.48
2022-10-01T03:51:06.956Z,11.52
2022-10-01T03:53:34.320Z,11.55
2022-10-01T03:56:02.085Z,11.53
2022-10-01T03:58:30.785Z,11.56
2022-10-01T04:00:58.165Z,11.58
2022-10-01T04:03:25.650Z,11.58
2022-10-01T04:05:53.045Z,11.61
2022-10-01T04:08:24.188Z,11.64
2022-10-01T04:10:52.029Z,11.66
2022-10-01T04:13:19.409Z,11.72
2022-10-01T04:15:48.764Z,11.73
2022-10-01T04:18:17.340Z,11.73
2022-10-01T04:20:44.719Z,11.80
2022-10-01T04:23:12.083Z,11.83
2022-10-01T04:25:39.701Z,11.87
2022-10-01T04:28:08.511Z,11.82
2022-10-01T04:30:36.977Z,11.87
2022-10-01T04:33:06.304Z,11.89
2022-10-01T04:35:34.262Z,11.89
2022-10-01T04:38:03.406Z,11.45
2022-10-01T04:40:31.106Z,11.96
2022-10-01T04:42:58.480Z,12.01
2022-10-01T04:45:25.866Z,12.02
2022-10-01T04:47:54.217Z,12.09
2022-10-01T04:50:23.808Z,11.52
2022-10-01T04:52:51.212Z,12.04
2022-10-01T04:55:19.239Z,12.11
2022-10-01T04:57:47.033Z,12.09
2022-10-01T05:00:15.846Z,12.12
2022-10-01T05:02:45.212Z,12.17
2022-10-01T05:05:12.618Z,12.12
2022-10-01T05:07:41.456Z,12.19
2022-10-01T05:10:09.646Z,12.19
2022-10-01T05:12:37.138Z,12.20
2022-10-01T05:15:04.737Z,12.14
2022-10-01T05:17:33.033Z,12.27
2022-10-01T05:20:00.519Z,12.13
2022-10-01T05:22:28.434Z,12.19
2022-10-01T05:24:59.024Z,12.14
2022-10-01T05:27:26.434Z,12.16
2022-10-01T05:29:54.214Z,12.11
2022-10-01T05:32:21.589Z,12.17
2022-10-01T05:34:53.446Z,12.16
2022-10-01T05:37:21.169Z,12.12
2022-10-01T05:39:48.796Z,12.14
2022-10-01T05:42:17.535Z,12.15
2022-10-01T05:44:46.200Z,12.08
2022-10-01T05:47:14.462Z,12.06
2022-10-01T05:49:42.802Z,12.15
2022-10-01T05:52:10.736Z,12.01
2022-10-01T05:54:38.698Z,12.00
2022-10-01T05:57:06.527Z,12.01
2022-10-01T05:59:35.402Z,11.95
2022-10-01T06:02:10.206Z,11.93
2022-10-01T06:04:41.029Z,11.95
2022-10-01T06:07:08.710Z,11.89
2022-10-01T06:09:36.079Z,11.80
2022-10-01T06:12:05.481Z,11.79
2022-10-01T06:14:32.845Z,11.81
2022-10-01T06:17:01.540Z,11.88
2022-10-01T06:19:28.894Z,11.87
2022-10-01T06:21:56.262Z,11.87
2022-10-01T06:24:23.613Z,11.96
2022-10-01T06:26:51.129Z,12.04
2022-10-01T06:29:18.507Z,12.08
2022-10-01T06:31:46.047Z,12.17
2022-10-01T06:34:14.835Z,12.18
2022-10-01T06:36:42.181Z,12.37
2022-10-01T06:39:09.577Z,12.46
2022-10-01T06:41:37.214Z,12.40
2022-10-01T06:44:04.682Z,12.51
2022-10-01T06:46:32.381Z,12.47
2022-10-01T06:48:59.886Z,12.47
2022-10-01T06:51:42.602Z,12.68
2022-10-01T06:54:10.090Z,12.63
2022-10-01T06:56:37.509Z,12.61
2022-10-01T06:59:05.111Z,12.81
2022-10-01T07:01:33.585Z,12.84
2022-10-01T07:04:01.319Z,12.92
2022-10-01T07:06:30.136Z,13.04
2022-10-01T07:08:57.517Z,13.16
2022-10-01T07:11:27.018Z,13.09
2022-10-01T07:13:54.853Z,12.93
2022-10-01T07:16:22.328Z,13.02
2022-10-01T07:18:49.819Z,13.06
2022-10-01T07:21:17.166Z,13.01
2022-10-01T07:23:45.903Z,12.90
2022-10-01T07:26:13.315Z,12.93
2022-10-01T07:28:40.709Z,12.98
2022-10-01T07:31:11.195Z,13.03
2022-10-01T07:33:38.881Z,13.03
2022-10-01T07:36:07.126Z,13.01
2022-10-01T07:38:34.882Z,13.04
2022-10-01T07:41:04.615Z,13.05
2022-10-01T07:43:32.724Z,13.13
2022-10-01T07:46:01.885Z,13.14
2022-10-01T07:48:29.342Z,13.29
2022-10-01T07:50:57.717Z,13.32
2022-10-01T07:53:25.189Z,13.35
2022-10-01T07:55:52.576Z,13.49
2022-10-01T07:58:23.811Z,13.67
2022-10-01T08:00:51.990Z,13.82
2022-10-01T08:03:19.420Z,13.88
2022-10-01T08:05:47.790Z,13.98
2022-10-01T08:08:15.164Z,13.94
2022-10-01T08:10:42.796Z,13.93
2022-10-01T08:13:14.306Z,13.98
2022-10-01T08:15:43.744Z,13.92
2022-10-01T08:18:11.270Z,13.97
2022-10-01T08:20:39.944Z,14.11
2022-10-01T08:23:08.212Z,14.02
2022-10-01T08:25:35.945Z,13.97
2022-10-01T08:28:03.456Z,14.16
2022-10-01T08:30:31.461Z,13.96
2022-10-01T08:33:01.077Z,13.84
2022-10-01T08:35:29.189Z,13.90
2022-10-01T08:37:57.105Z,13.99
2022-10-01T08:40:24.808Z,14.10
2022-10-01T08:42:54.979Z,14.26
2022-10-01T08:45:24.529Z,14.16
2022-10-01T08:47:56.392Z,14.02
2022-10-01T08:50:31.287Z,14.02
2022-10-01T08:53:01.206Z,14.14
2022-10-01T08:55:31.777Z,14.22
2022-10-01T08:58:01.282Z,14.30
2022-10-01T09:00:31.896Z,14.39
2022-10-01T09:03:01.437Z,14.51
2022-10-01T09:05:37.862Z,14.60
2022-10-01T09:08:15.282Z,14.74
2022-10-01T09:10:45.594Z,14.76
2022-10-01T09:13:20.791Z,14.93
2022-10-01T09:15:51.499Z,15.07
2022-10-01T09:18:22.004Z,15.17
2022-10-01T09:20:53.410Z,15.17
2022-10-01T09:23:26.661Z,15.22
2022-10-01T09:25:54.053Z,15.23
2022-10-01T09:28:22.604Z,15.29
2022-10-01T09:30:54.814Z,15.54
2022-10-01T09:33:24.431Z,15.71
2022-10-01T09:35:56.558Z,15.79
2022-10-01T09:38:26.853Z,15.78
2022-10-01T09:40:55.009Z,15.81
2022-10-01T09:43:23.563Z,15.45
2022-10-01T09:45:51.376Z,15.35
2022-10-01T09:48:22.623Z,14.92
2022-10-01T09:50:56.459Z,15.13
2022-10-01T09:53:27.317Z,15.21
2022-10-01T09:55:57.628Z,15.33
2022-10-01T09:58:27.627Z,15.33
2022-10-01T10:00:56.485Z,15.19
2022-10-01T10:03:26.113Z,15.15
2022-10-01T10:05:53.820Z,15.13
2022-10-01T10:08:24.990Z,15.15
2022-10-01T10:10:58.315Z,15.02
2022-10-01T10:13:31.545Z,15.07
2022-10-01T10:16:00.141Z,14.95
2022-10-01T10:18:29.827Z,14.85
2022-10-01T10:20:58.982Z,14.95
2022-10-01T10:23:28.926Z,15.08
2022-10-01T10:26:00.724Z,15.35
2022-10-01T10:28:28.814Z,15.79
2022-10-01T10:30:56.949Z,15.97
2022-10-01T10:33:26.232Z,16.22
2022-10-01T10:36:01.514Z,16.07
2022-10-01T10:38:31.665Z,15.94
2022-10-01T10:41:00.738Z,16.29
2022-10-01T10:43:30.370Z,16.50
2022-10-01T10:45:58.668Z,16.62
2022-10-01T10:48:32.575Z,16.65
2022-10-01T10:51:00.819Z,17.16
2022-10-01T10:53:29.062Z,17.19
2022-10-01T10:55:58.338Z,17.34
2022-10-01T10:58:27.866Z,17.39
2022-10-01T11:00:57.555Z,16.74
2022-10-01T11:03:27.281Z,16.27
2022-10-01T11:05:56.187Z,16.16
2022-10-01T11:08:25.908Z,16.28
2022-10-01T11:10:59.528Z,16.39
2022-10-01T11:13:44.839Z,16.88
2022-10-01T11:16:24.406Z,17.06
2022-10-01T11:19:01.299Z,17.23
2022-10-01T11:21:40.319Z,17.55
2022-10-01T11:24:17.002Z,17.73
2022-10-01T11:26:53.303Z,17.85
2022-10-01T11:29:27.798Z,17.96
2022-10-01T11:32:02.816Z,17.90
2022-10-01T11:34:39.830Z,17.53
2022-10-01T11:37:11.208Z,17.42
2022-10-01T11:39:41.470Z,17.18
2022-10-01T11:42:10.735Z,17.01
2022-10-01T11:44:43.266Z,17.34
2022-10-01T11:47:14.221Z,17.44
2022-10-01T11:49:46.032Z,17.45
2022-10-01T11:52:18.298Z,17.55
2022-10-01T11:54:56.079Z,17.57
2022-10-01T11:57:41.883Z,17.31
2022-10-01T12:00:14.044Z,16.87
2022-10-01T12:02:47.771Z,16.90
2022-10-01T12:05:18.386Z,17.38
2022-10-01T12:07:49.115Z,17.97
2022-10-01T12:10:21.277Z,17.62
2022-10-01T12:12:52.321Z,17.85
2022-10-01T12:15:23.324Z,17.48
2022-10-01T12:17:53.973Z,17.28
2022-10-01T12:20:24.738Z,16.71
2022-10-01T12:22:53.653Z,16.53
2022-10-01T12:25:23.568Z,16.31
2022-10-01T12:27:56.394Z,16.86
2022-10-01T12:30:29.172Z,16.68
2022-10-01T12:33:04.655Z,17.11
2022-10-01T12:35:47.866Z,17.45
2022-10-01T12:38:22.094Z,16.92
2022-10-01T12:40:51.799Z,16.60
2022-10-01T12:43:29.482Z,16.45
2022-10-01T12:46:02.378Z,16.34
2022-10-01T12:48:34.285Z,16.56
2022-10-01T12:51:14.805Z,17.49
2022-10-01T12:53:46.148Z,18.46
2022-10-01T12:56:16.787Z,18.40
2022-10-01T12:58:51.152Z,18.74
2022-10-01T13:01:23.647Z,18.04
2022-10-01T13:04:03.763Z,19.43
2022-10-01T13:06:37.128Z,19.29
2022-10-01T13:09:10.704Z,19.37
2022-10-01T13:11:44.583Z,18.23
2022-10-01T13:14:13.581Z,17.88
2022-10-01T13:16:46.197Z,17.57
2022-10-01T13:19:16.560Z,18.08
2022-10-01T13:21:52.720Z,18.22
2022-10-01T13:24:26.769Z,17.74
2022-10-01T13:26:58.179Z,18.14
2022-10-01T13:29:31.981Z,17.87
2022-10-01T13:32:01.600Z,18.62
2022-10-01T13:34:36.006Z,18.61
2022-10-01T13:37:16.619Z,17.98
2022-10-01T13:39:44.944Z,17.78
2022-10-01T13:42:20.148Z,17.17
2022-10-01T13:44:52.568Z,17.03
2022-10-01T13:47:22.360Z,17.24
2022-10-01T13:49:56.976Z,18.14
2022-10-01T13:52:25.178Z,17.76
2022-10-01T13:54:54.243Z,17.24
2022-10-01T13:57:33.813Z,16.78
2022-10-01T14:00:02.990Z,17.21
2022-10-01T14:02:34.772Z,17.12
2022-10-01T14:05:23.174Z,16.29
2022-10-01T14:07:55.169Z,16.28
2022-10-01T14:10:25.007Z,16.20
2022-10-01T14:13:21.742Z,16.08
2022-10-01T14:16:03.111Z,15.68
2022-10-01T14:18:34.927Z,15.57
2022-10-01T14:21:05.415Z,15.43
2022-10-01T14:23:36.802Z,15.29
2022-10-01T14:26:10.087Z,14.76
2022-10-01T14:28:43.635Z,14.70
2022-10-01T14:31:16.798Z,14.28
2022-10-01T14:34:02.331Z,15.94
2022-10-01T14:36:34.891Z,16.57
2022-10-01T14:39:06.395Z,16.49
2022-10-01T14:41:34.854Z,16.38
2022-10-01T14:44:02.622Z,15.75
2022-10-01T14:46:30.123Z,15.21
2022-10-01T14:49:00.575Z,15.04
2022-10-01T14:51:28.610Z,15.44
2022-10-01T14:53:57.603Z,15.74
2022-10-01T14:56:25.260Z,15.97
2022-10-01T14:58:55.479Z,16.54
2022-10-01T15:01:23.958Z,17.19
2022-10-01T15:03:52.030Z,17.40
2022-10-01T15:06:21.818Z,16.51
2022-10-01T15:08:50.192Z,16.32
2022-10-01T15:11:19.066Z,16.28
2022-10-01T15:13:47.396Z,16.29
2022-10-01T15:16:16.071Z,16.38
2022-10-01T15:18:45.790Z,16.31
2022-10-01T15:21:17.036Z,17.32
2022-10-01T15:23:46.246Z,17.02
2022-10-01T15:26:15.337Z,16.10
2022-10-01T15:28:44.358Z,16.00
2022-10-01T15:31:11.949Z,15.35
2022-10-01T15:33:40.913Z,15.29
2022-10-01T15:36:09.896Z,15.35
2022-10-01T15:38:37.482Z,15.26
2022-10-01T15:41:30.088Z,15.44
2022-10-01T15:43:55.085Z,15.24
2022-10-01T15:46:29.134Z,15.35
2022-10-01T15:49:12.682Z,15.43
2022-10-01T15:51:45.335Z,15.58
2022-10-01T15:54:15.440Z,15.51
2022-10-01T15:56:48.577Z,15.48
2022-10-01T15:59:18.408Z,15.39
2022-10-01T16:01:45.854Z,15.43
2022-10-01T16:04:14.616Z,15.20
2022-10-01T16:06:43.576Z,15.12
2022-10-01T16:09:15.591Z,15.15
2022-10-01T16:11:55.087Z,15.05
2022-10-01T16:14:24.347Z,14.92
2022-10-01T16:16:51.871Z,14.93
2022-10-01T16:19:21.793Z,14.83
2022-10-01T16:22:14.594Z,14.89
2022-10-01T16:24:43.366Z,14.79
2022-10-01T16:27:15.935Z,14.82
2022-10-01T16:29:44.132Z,14.90
2022-10-01T16:32:14.684Z,15.04
2022-10-01T16:34:42.081Z,15.13
2022-10-01T16:37:09.695Z,15.09
2022-10-01T16:39:37.200Z,15.05
2022-10-01T16:42:22.773Z,14.99
2022-10-01T16:44:53.202Z,14.65
2022-10-01T16:47:20.637Z,14.94
2022-10-01T16:49:48.943Z,14.92
2022-10-01T16:52:17.549Z,14.90
2022-10-01T16:54:47.346Z,14.93
2022-10-01T16:57:15.851Z,14.94
2022-10-01T16:59:43.366Z,14.99
2022-10-01T17:02:12.871Z,15.06
2022-10-01T17:04:40.477Z,15.04
2022-10-01T17:07:08.142Z,14.87
2022-10-01T17:09:35.605Z,14.66
2022-10-01T17:12:03.038Z,14.75
2022-10-01T17:14:30.492Z,14.67
2022-10-01T17:16:57.911Z,14.59
2022-10-01T17:19:26.807Z,14.48
2022-10-01T17:21:55.738Z,14.52
2022-10-01T17:24:23.150Z,14.48
2022-10-01T17:26:50.587Z,14.47
2022-10-01T17:29:17.922Z,14.40
2022-10-01T17:31:47.782Z,14.38
2022-10-01T17:34:15.310Z,14.35
2022-10-01T17:36:45.595Z,14.18
2022-10-01T17:39:12.991Z,14.06
2022-10-01T17:41:40.495Z,14.05
2022-10-01T17:44:07.870Z,14.01
2022-10-01T17:46:35.507Z,13.92
2022-10-01T17:49:03.140Z,13.87
2022-10-01T17:51:31.252Z,13.86
2022-10-01T17:54:02.386Z,13.85
2022-10-01T17:56:32.749Z,13.83
2022-10-01T17:59:00.605Z,13.80
2022-10-01T18:01:28.161Z,13.75
2022-10-01T18:03:56.281Z,13.80
2022-10-01T18:06:24.016Z,13.70
2022-10-01T18:08:55.441Z,13.74
2022-10-01T18:11:25.606Z,13.67
2022-10-01T18:13:53.111Z,13.58
2022-10-01T18:16:20.908Z,13.53
2022-10-01T18:21:36.347Z,13.47
2022-10-01T18:24:04.975Z,13.43
2022-10-01T18:26:34.401Z,13.41
2022-10-01T18:29:02.149Z,13.42
2022-10-01T18:31:34.485Z,13.58
2022-10-01T18:34:03.213Z,13.47
2022-10-01T18:36:40.176Z,13.46
2022-10-01T18:39:13.099Z,13.29
2022-10-01T18:41:42.403Z,13.35
2022-10-01T18:44:11.170Z,13.44
2022-10-01T18:46:52.295Z,13.35
2022-10-01T18:49:27.169Z,13.29
2022-10-01T18:52:02.092Z,13.19
2022-10-01T18:54:37.487Z,13.08
2022-10-01T18:57:11.716Z,13.06
2022-10-01T19:00:03.281Z,13.00
2022-10-01T19:02:40.219Z,12.90
2022-10-01T19:05:37.918Z,12.90
2022-10-01T19:08:10.990Z,12.90
2022-10-01T19:10:40.798Z,13.03
2022-10-01T19:13:16.486Z,12.98
2022-10-01T19:15:50.634Z,12.96
2022-10-01T19:18:29.096Z,13.07
2022-10-01T19:21:01.931Z,13.02
2022-10-01T19:23:34.982Z,13.04
2022-10-01T19:26:08.855Z,13.06
2022-10-01T19:28:45.996Z,13.01
2022-10-01T19:31:17.997Z,12.98
2022-10-01T19:33:47.876Z,13.02
2022-10-01T19:36:19.389Z,12.81
2022-10-01T19:38:48.525Z,12.94
2022-10-01T19:41:20.578Z,12.89
2022-10-01T19:43:53.538Z,12.91
2022-10-01T19:46:25.259Z,12.82
2022-10-01T19:48:55.875Z,12.70
2022-10-01T19:51:24.644Z,12.65
2022-10-01T19:53:56.281Z,12.60
2022-10-01T19:56:26.285Z,12.61
2022-10-01T19:58:54.987Z,12.65
2022-10-01T20:01:25.037Z,12.66
2022-10-01T20:03:58.378Z,12.63
2022-10-01T20:06:29.643Z,12.72
2022-10-01T20:08:59.332Z,12.59
2022-10-01T20:11:30.185Z,12.61
2022-10-01T20:14:05.075Z,12.62
2022-10-01T20:16:36.208Z,12.65
2022-10-01T20:19:11.034Z,12.71
2022-10-01T20:21:47.487Z,12.63
2022-10-01T20:24:28.832Z,12.65
2022-10-01T20:27:01.706Z,12.49
2022-10-01T20:29:37.990Z,12.41
2022-10-01T20:32:11.289Z,12.38
2022-10-01T20:34:45.074Z,12.40
2022-10-01T20:37:19.527Z,12.30
2022-10-01T20:39:49.305Z,12.29
2022-10-01T20:42:18.377Z,12.31
2022-10-01T20:44:47.249Z,12.32
2022-10-01T20:47:20.089Z,12.25
2022-10-01T20:49:51.786Z,12.32
2022-10-01T20:52:25.262Z,12.27
2022-10-01T20:54:53.682Z,12.40
2022-10-01T20:57:25.679Z,12.39
2022-10-01T20:59:56.275Z,11.99
2022-10-01T21:02:27.409Z,12.41
2022-10-01T21:05:01.451Z,12.34
2022-10-01T21:07:37.114Z,12.37
2022-10-01T21:10:07.103Z,12.43
2022-10-01T21:12:38.604Z,12.54
2022-10-01T21:15:12.541Z,12.48
2022-10-01T21:17:43.390Z,12.62
2022-10-01T21:20:25.856Z,12.60
2022-10-01T21:22:59.674Z,12.53
2022-10-01T21:25:31.438Z,12.60
2022-10-01T21:28:08.101Z,12.72
2022-10-01T21:30:43.566Z,12.75
2022-10-01T21:33:15.396Z,12.71
2022-10-01T21:35:48.896Z,12.64
2022-10-01T21:38:22.660Z,12.56
2022-10-01T21:40:59.934Z,12.59
2022-10-01T21:43:37.119Z,12.61
2022-10-01T21:46:10.607Z,12.57
2022-10-01T21:48:42.698Z,12.58
2022-10-01T21:51:16.471Z,12.70
2022-10-01T21:54:03.707Z,12.63
2022-10-01T21:56:50.009Z,12.70
2022-10-01T21:59:26.187Z,12.48
2022-10-01T22:02:04.381Z,12.55
2022-10-01T22:04:36.185Z,12.47
2022-10-01T22:07:06.398Z,12.51
2022-10-01T22:09:36.948Z,12.62
2022-10-01T22:12:06.992Z,12.50
2022-10-01T22:14:34.531Z,12.54
2022-10-01T22:17:05.721Z,12.52
2022-10-01T22:19:35.611Z,12.54
2022-10-01T22:22:05.030Z,12.60
2022-10-01T22:24:34.650Z,12.73
2022-10-01T22:27:06.377Z,12.77
2022-10-01T22:29:37.104Z,12.79
2022-10-01T22:32:06.028Z,12.93
2022-10-01T22:34:35.110Z,12.99
2022-10-01T22:37:05.495Z,13.08
2022-10-01T22:39:34.543Z,13.15
2022-10-01T22:42:06.161Z,13.22
2022-10-01T22:44:33.574Z,13.27
2022-10-01T22:47:19.697Z,13.33
2022-10-01T22:49:56.960Z,13.30
2022-10-01T22:52:29.067Z,13.30
2022-10-01T22:55:02.831Z,13.30
2022-10-01T22:57:43.606Z,13.31
2022-10-01T23:00:12.963Z,13.21
2022-10-01T23:02:41.385Z,12.98
2022-10-01T23:05:18.482Z,13.26
2022-10-01T23:07:53.551Z,13.33
2022-10-01T23:10:26.878Z,13.29
2022-10-01T23:13:05.268Z,13.18
2022-10-01T23:15:37.894Z,13.20
2022-10-01T23:18:10.243Z,13.21
2022-10-01T23:20:44.267Z,13.14
2022-10-01T23:23:28.354Z,13.05
2022-10-01T23:26:04.125Z,13.05
2022-10-01T23:28:39.466Z,12.98
2022-10-01T23:31:10.412Z,12.91
2022-10-01T23:33:52.735Z,12.87
2022-10-01T23:36:29.591Z,12.82
2022-10-01T23:39:15.755Z,12.76
2022-10-01T23:41:46.568Z,12.69
2022-10-01T23:44:16.811Z,12.76
2022-10-01T23:46:47.557Z,12.73
2022-10-01T23:49:16.191Z,12.66
2022-10-01T23:51:48.869Z,12.70
2022-10-01T23:54:21.058Z,12.82
2022-10-01T23:56:51.756Z,12.29
2022-10-01T23:59:23.868Z,12.64
